createdAt,value
2022-08-03T00:01:50.744Z,4.32
2022-08-03T00:04:17.697Z,3.22
2022-08-03T00:06:44.378Z,2.45
2022-08-03T00:09:11.954Z,2.30
2022-08-03T00:11:38.719Z,3.35
2022-08-03T00:14:07.055Z,2.90
2022-08-03T00:16:34.130Z,2.97
2022-08-03T00:19:01.617Z,4.22
2022-08-03T00:21:28.935Z,3.08
2022-08-03T00:23:55.644Z,3.22
2022-08-03T00:26:22.302Z,3.53
2022-08-03T00:28:49.468Z,3.97
2022-08-03T00:31:16.111Z,2.85
2022-08-03T00:33:58.034Z,3.15
2022-08-03T00:36:27.295Z,3.75
2022-08-03T00:38:54.022Z,3.00
2022-08-03T00:41:20.670Z,4.32
2022-08-03T00:43:47.174Z,3.22
2022-08-03T00:46:19.062Z,3.15
2022-08-03T00:48:51.618Z,2.67
2022-08-03T00:51:19.807Z,3.42
2022-08-03T00:53:46.467Z,2.85
2022-08-03T00:56:14.457Z,3.10
2022-08-03T00:58:43.453Z,3.22
2022-08-03T01:01:10.691Z,2.50
2022-08-03T01:03:37.287Z,2.78
2022-08-03T01:06:19.090Z,3.63
2022-08-03T01:08:48.251Z,3.22
2022-08-03T01:11:14.674Z,2.75
2022-08-03T01:14:17.877Z,2.55
2022-08-03T01:16:35.834Z,3.10
2022-08-03T01:19:24.941Z,2.80
2022-08-03T01:21:57.590Z,2.90
2022-08-03T01:24:44.572Z,2.70
2022-08-03T01:27:52.231Z,3.33
2022-08-03T01:30:19.095Z,3.70
2022-08-03T01:33:01.444Z,3.72
2022-08-03T01:35:32.858Z,2.92
2022-08-03T01:38:09.660Z,3.35
2022-08-03T01:40:39.392Z,3.35
2022-08-03T01:43:08.797Z,3.70
2022-08-03T01:45:37.182Z,3.30
2022-08-03T01:48:06.657Z,3.85
2022-08-03T01:50:34.660Z,3.70
2022-08-03T01:53:02.328Z,2.80
2022-08-03T01:55:31.637Z,5.32
2022-08-03T01:58:05.765Z,3.65
2022-08-03T02:00:36.448Z,3.25
2022-08-03T02:03:06.674Z,3.53
2022-08-03T02:05:34.619Z,2.90
2022-08-03T02:08:03.617Z,3.55
2022-08-03T02:10:34.471Z,2.78
2022-08-03T02:13:02.834Z,3.00
2022-08-03T02:15:31.454Z,3.00
2022-08-03T02:18:00.088Z,4.10
2022-08-03T02:20:27.805Z,2.75
2022-08-03T02:22:54.546Z,2.60
2022-08-03T02:25:21.202Z,3.03
2022-08-03T02:27:55.026Z,2.10
2022-08-03T02:30:23.546Z,3.58
2022-08-03T02:32:57.742Z,3.08
2022-08-03T02:35:26.750Z,2.75
2022-08-03T02:37:59.813Z,3.05
2022-08-03T02:40:29.163Z,3.10
2022-08-03T02:42:59.378Z,2.30
2022-08-03T02:45:27.699Z,2.17
2022-08-03T02:47:59.879Z,2.53
2022-08-03T02:50:28.028Z,2.72
2022-08-03T02:52:55.962Z,2.35
2022-08-03T02:55:25.985Z,2.47
2022-08-03T02:57:54.026Z,2.58
2022-08-03T03:00:27.516Z,2.90
2022-08-03T03:03:01.376Z,2.28
2022-08-03T03:05:55.791Z,2.00
2022-08-03T03:08:20.674Z,2.05
2022-08-03T03:10:48.935Z,2.38
2022-08-03T03:13:23.042Z,1.90
2022-08-03T03:15:50.723Z,2.05
2022-08-03T03:18:22.301Z,2.10
2022-08-03T03:20:51.461Z,2.10
2022-08-03T03:23:19.304Z,2.13
2022-08-03T03:25:46.530Z,2.13
2022-08-03T03:28:13.267Z,2.00
2022-08-03T03:30:39.791Z,1.90
2022-08-03T03:33:06.660Z,2.60
2022-08-03T03:35:37.071Z,2.00
2022-08-03T03:38:06.190Z,2.17
2022-08-03T03:40:34.703Z,2.05
2022-08-03T03:43:01.360Z,2.30
2022-08-03T03:45:28.988Z,2.00
2022-08-03T03:47:55.647Z,1.70
2022-08-03T03:50:23.775Z,2.33
2022-08-03T03:52:50.376Z,1.70
2022-08-03T03:55:18.340Z,1.70
2022-08-03T03:57:45.696Z,1.67
2022-08-03T04:00:14.010Z,2.50
2022-08-03T04:02:40.863Z,1.92
2022-08-03T04:05:08.556Z,1.70
2022-08-03T04:07:54.519Z,1.48
2022-08-03T04:10:23.497Z,2.95
2022-08-03T04:12:53.991Z,1.55
2022-08-03T04:15:23.901Z,1.52
2022-08-03T04:17:53.600Z,1.80
2022-08-03T04:20:21.521Z,1.73
2022-08-03T04:22:50.813Z,1.25
2022-08-03T04:25:20.776Z,1.70
2022-08-03T04:28:28.308Z,1.73
2022-08-03T04:30:38.738Z,1.40
2022-08-03T04:33:07.369Z,2.05
2022-08-03T04:36:01.203Z,1.90
2022-08-03T04:38:25.514Z,1.45
2022-08-03T04:40:52.822Z,1.80
2022-08-03T04:43:22.439Z,1.48
2022-08-03T04:45:50.123Z,1.40
2022-08-03T04:48:17.404Z,1.90
2022-08-03T04:50:44.589Z,1.40
2022-08-03T04:53:11.264Z,1.60
2022-08-03T04:55:37.897Z,1.45
2022-08-03T04:58:04.678Z,1.33
2022-08-03T05:00:31.292Z,1.80
2022-08-03T05:02:58.071Z,1.33
2022-08-03T05:05:24.726Z,1.42
2022-08-03T05:07:51.537Z,2.25
2022-08-03T05:10:19.712Z,1.55
2022-08-03T05:12:48.413Z,1.52
2022-08-03T05:15:15.461Z,1.30
2022-08-03T05:17:41.998Z,1.65
2022-08-03T05:20:09.365Z,1.25
2022-08-03T05:22:35.932Z,1.83
2022-08-03T05:25:03.220Z,1.50
2022-08-03T05:27:29.818Z,1.30
2022-08-03T05:29:56.340Z,1.30
2022-08-03T05:32:42.863Z,1.23
2022-08-03T05:36:00.709Z,1.30
2022-08-03T05:37:56.217Z,1.55
2022-08-03T05:40:22.747Z,1.45
2022-08-03T05:42:49.270Z,0.98
2022-08-03T05:45:15.763Z,1.30
2022-08-03T05:47:42.386Z,1.10
2022-08-03T05:50:09.259Z,1.33
2022-08-03T05:52:35.802Z,1.10
2022-08-03T05:55:05.392Z,1.30
2022-08-03T05:57:31.947Z,1.08
2022-08-03T05:59:58.996Z,1.23
2022-08-03T06:02:28.372Z,1.55
2022-08-03T06:04:54.934Z,1.88
2022-08-03T06:07:21.465Z,1.20
2022-08-03T06:10:33.849Z,0.93
2022-08-03T06:12:34.793Z,1.02
2022-08-03T06:15:02.096Z,1.52
2022-08-03T06:17:28.680Z,1.48
2022-08-03T06:20:04.912Z,1.30
2022-08-03T06:22:31.428Z,1.38
2022-08-03T06:24:58.549Z,1.00
2022-08-03T06:27:37.032Z,0.90
2022-08-03T06:30:05.251Z,0.85
2022-08-03T06:32:32.009Z,1.48
2022-08-03T06:34:58.538Z,0.90
2022-08-03T06:37:25.350Z,1.25
2022-08-03T06:39:51.875Z,1.00
2022-08-03T06:42:18.621Z,1.50
2022-08-03T06:44:47.242Z,1.17
2022-08-03T06:47:13.761Z,0.95
2022-08-03T06:49:40.388Z,0.90
2022-08-03T06:52:07.153Z,2.15
2022-08-03T06:54:33.959Z,0.90
2022-08-03T06:57:00.486Z,0.95
2022-08-03T07:00:09.680Z,0.98
2022-08-03T07:02:19.161Z,1.40
2022-08-03T07:04:49.530Z,0.80
2022-08-03T07:07:16.260Z,1.00
2022-08-03T07:09:42.761Z,0.82
2022-08-03T07:14:50.451Z,1.95
2022-08-03T07:17:16.989Z,1.27
2022-08-03T07:19:43.484Z,1.67
2022-08-03T07:22:10.074Z,1.00
2022-08-03T07:24:36.617Z,1.10
2022-08-03T07:27:03.845Z,1.05
2022-08-03T07:29:30.352Z,0.90
2022-08-03T07:32:01.969Z,0.82
2022-08-03T07:34:28.596Z,0.95
2022-08-03T07:36:55.208Z,0.60
2022-08-03T07:39:21.730Z,0.63
2022-08-03T07:41:48.385Z,0.73
2022-08-03T07:44:14.915Z,0.70
2022-08-03T07:46:41.498Z,2.35
2022-08-03T07:49:08.047Z,0.60
2022-08-03T07:51:34.774Z,0.70
2022-08-03T07:54:01.740Z,0.70
2022-08-03T07:56:28.865Z,0.65
2022-08-03T07:58:55.572Z,0.80
2022-08-03T08:01:22.729Z,0.90
2022-08-03T08:03:53.277Z,1.00
2022-08-03T08:08:47.463Z,1.27
2022-08-03T08:11:14.218Z,0.70
2022-08-03T08:13:40.766Z,0.88
2022-08-03T08:16:07.379Z,1.05
2022-08-03T08:18:33.917Z,0.70
2022-08-03T08:21:00.472Z,0.90
2022-08-03T08:23:43.515Z,0.60
2022-08-03T08:26:11.745Z,0.60
2022-08-03T08:28:38.679Z,0.80
2022-08-03T08:31:05.456Z,0.70
2022-08-03T08:36:18.649Z,0.57
2022-08-03T08:38:45.329Z,0.50
2022-08-03T08:41:13.777Z,0.50
2022-08-03T08:43:41.330Z,0.65
2022-08-03T08:46:12.388Z,0.60
2022-08-03T08:48:42.111Z,0.70
2022-08-03T08:51:12.189Z,0.55
2022-08-03T08:53:43.111Z,0.90
2022-08-03T08:56:12.661Z,0.68
2022-08-03T08:58:47.010Z,0.60
2022-08-03T09:01:13.650Z,0.70
2022-08-03T09:03:41.060Z,0.60
2022-08-03T09:06:07.625Z,0.75
2022-08-03T09:08:34.264Z,0.50
2022-08-03T09:11:00.950Z,0.70
2022-08-03T09:13:27.476Z,0.55
2022-08-03T09:16:13.709Z,0.63
2022-08-03T09:18:45.983Z,0.80
2022-08-03T09:21:31.658Z,0.63
2022-08-03T09:24:03.658Z,0.95
2022-08-03T09:26:32.710Z,0.88
2022-08-03T09:29:06.812Z,0.70
2022-08-03T09:31:43.495Z,0.90
2022-08-03T09:34:13.018Z,1.10
2022-08-03T09:36:50.475Z,0.82
2022-08-03T09:39:41.213Z,1.02
2022-08-03T09:42:17.359Z,0.45
2022-08-03T09:44:52.020Z,0.73
2022-08-03T09:47:32.941Z,0.60
2022-08-03T09:52:39.037Z,0.83
2022-08-03T09:55:23.543Z,0.60
2022-08-03T09:58:06.770Z,0.47
2022-08-03T10:00:52.132Z,0.98
2022-08-03T10:03:18.709Z,0.90
2022-08-03T10:05:45.289Z,1.48
2022-08-03T10:08:16.966Z,1.00
2022-08-03T10:10:45.096Z,1.38
2022-08-03T10:13:14.057Z,1.35
2022-08-03T10:16:23.182Z,1.00
2022-08-03T10:18:27.947Z,0.95
2022-08-03T10:21:02.982Z,0.80
2022-08-03T10:23:34.510Z,0.80
2022-08-03T10:26:04.016Z,0.80
2022-08-03T10:28:45.341Z,0.70
2022-08-03T10:31:13.957Z,1.00
2022-08-03T10:33:52.090Z,0.98
2022-08-03T10:36:23.676Z,0.88
2022-08-03T10:41:21.130Z,0.50
2022-08-03T10:43:56.431Z,0.70
2022-08-03T10:46:23.493Z,0.38
2022-08-03T10:48:50.793Z,0.65
2022-08-03T10:51:17.439Z,0.40
2022-08-03T10:53:55.017Z,0.30
2022-08-03T10:56:48.060Z,0.60
2022-08-03T10:59:28.145Z,0.57
2022-08-03T11:02:00.008Z,0.40
2022-08-03T11:04:28.810Z,0.40
2022-08-03T11:07:24.172Z,0.73
2022-08-03T11:09:55.854Z,0.82
2022-08-03T11:12:31.263Z,0.50
2022-08-03T11:15:07.509Z,0.40
2022-08-03T11:17:46.925Z,0.70
2022-08-03T11:20:46.895Z,0.50
2022-08-03T11:23:14.693Z,0.40
2022-08-03T11:26:15.212Z,0.40
2022-08-03T11:28:44.327Z,0.40
2022-08-03T11:31:48.248Z,0.50
2022-08-03T11:34:14.757Z,0.40
2022-08-03T11:37:19.415Z,0.40
2022-08-03T11:39:48.179Z,0.30
2022-08-03T11:42:23.739Z,0.35
2022-08-03T11:44:51.691Z,0.40
2022-08-03T11:47:18.594Z,0.30
2022-08-03T11:49:49.322Z,0.40
2022-08-03T11:52:18.798Z,0.47
2022-08-03T11:54:45.637Z,0.30
2022-08-03T11:57:12.286Z,0.40
2022-08-03T11:59:39.008Z,0.30
2022-08-03T12:02:13.485Z,0.43
2022-08-03T12:04:57.595Z,0.35
2022-08-03T12:08:03.174Z,0.50
2022-08-03T12:10:14.540Z,1.02
2022-08-03T12:12:46.040Z,0.40
2022-08-03T12:15:13.230Z,0.50
2022-08-03T12:17:41.194Z,0.28
2022-08-03T12:20:10.281Z,0.20
2022-08-03T12:22:40.667Z,0.30
2022-08-03T12:25:08.916Z,0.40
2022-08-03T12:27:36.079Z,0.35
2022-08-03T12:30:03.861Z,0.40
2022-08-03T12:32:31.402Z,0.28
2022-08-03T12:35:00.226Z,0.47
2022-08-03T12:37:27.500Z,0.35
2022-08-03T12:40:00.413Z,0.50
2022-08-03T12:42:35.088Z,0.65
2022-08-03T12:45:28.316Z,0.50
2022-08-03T12:47:57.982Z,0.40
2022-08-03T12:50:31.374Z,0.40
2022-08-03T12:53:01.276Z,0.35
2022-08-03T12:55:28.207Z,0.60
2022-08-03T12:57:54.768Z,0.22
2022-08-03T13:00:29.425Z,0.60
2022-08-03T13:03:38.215Z,0.32
2022-08-03T13:05:52.535Z,0.50
2022-08-03T13:08:24.513Z,0.50
2022-08-03T13:10:51.383Z,0.63
2022-08-03T13:13:17.930Z,0.85
2022-08-03T13:15:48.123Z,0.47
2022-08-03T13:18:15.253Z,0.43
2022-08-03T13:20:44.172Z,0.60
2022-08-03T13:23:13.000Z,0.60
2022-08-03T13:25:55.074Z,0.60
2022-08-03T13:28:22.638Z,0.50
2022-08-03T13:30:49.360Z,0.50
2022-08-03T13:33:15.917Z,0.52
2022-08-03T13:35:42.428Z,0.35
2022-08-03T13:38:09.005Z,0.60
2022-08-03T13:40:41.806Z,0.47
2022-08-03T13:43:08.660Z,0.52
2022-08-03T13:45:35.225Z,0.50
2022-08-03T13:48:01.870Z,0.60
2022-08-03T13:50:28.375Z,0.50
2022-08-03T13:52:54.911Z,8.77
2022-08-03T13:55:21.404Z,0.60
2022-08-03T13:58:11.747Z,0.50
2022-08-03T14:00:34.611Z,0.68
2022-08-03T14:03:07.939Z,0.40
2022-08-03T14:05:36.095Z,0.45
2022-08-03T14:08:04.169Z,0.38
2022-08-03T14:10:38.827Z,0.70
2022-08-03T14:13:06.637Z,0.40
2022-08-03T14:15:37.778Z,0.50
2022-08-03T14:18:06.637Z,0.40
2022-08-03T14:20:37.876Z,0.50
2022-08-03T14:23:06.179Z,0.50
2022-08-03T14:25:49.876Z,0.60
2022-08-03T14:28:18.899Z,0.50
2022-08-03T14:30:46.178Z,1.00
2022-08-03T14:33:12.735Z,1.25
2022-08-03T14:35:39.356Z,3.83
2022-08-03T14:38:06.261Z,0.50
2022-08-03T14:40:32.922Z,1.80
2022-08-03T14:42:59.563Z,0.80
2022-08-03T14:45:26.156Z,0.57
2022-08-03T14:50:30.176Z,0.68
2022-08-03T14:50:45.460Z,0.38
2022-08-03T14:53:15.510Z,0.60
2022-08-03T14:55:50.607Z,0.60
2022-08-03T14:58:21.482Z,0.57
2022-08-03T15:03:16.599Z,0.52
2022-08-03T15:05:44.397Z,0.50
2022-08-03T15:08:11.006Z,0.50
2022-08-03T15:10:44.029Z,0.50
2022-08-03T15:13:11.950Z,0.60
2022-08-03T15:15:38.518Z,0.73
2022-08-03T15:18:05.184Z,0.50
2022-08-03T15:20:43.263Z,0.50
2022-08-03T15:23:12.151Z,0.50
2022-08-03T15:26:28.791Z,0.70
2022-08-03T15:28:25.315Z,0.50
2022-08-03T15:30:52.737Z,0.45
2022-08-03T15:33:19.331Z,0.50
2022-08-03T15:35:45.894Z,0.60
2022-08-03T15:38:12.419Z,0.70
2022-08-03T15:40:38.980Z,0.50
2022-08-03T15:43:05.737Z,0.77
2022-08-03T15:45:35.339Z,0.80
2022-08-03T15:48:03.663Z,0.60
2022-08-03T15:50:30.243Z,0.55
2022-08-03T15:52:56.898Z,0.70
2022-08-03T15:55:23.400Z,0.50
2022-08-03T15:59:11.069Z,0.63
2022-08-03T16:00:36.772Z,0.40
2022-08-03T16:03:03.310Z,0.60
2022-08-03T16:05:29.937Z,0.47
2022-08-03T16:08:03.042Z,0.60
2022-08-03T16:10:30.824Z,0.40
2022-08-03T16:12:57.577Z,0.40
2022-08-03T16:15:24.272Z,0.50
2022-08-03T16:17:50.809Z,0.50
2022-08-03T16:20:34.282Z,0.50
2022-08-03T16:23:06.989Z,0.70
2022-08-03T16:25:38.587Z,0.70
2022-08-03T16:28:08.097Z,0.68
2022-08-03T16:30:40.391Z,0.98
2022-08-03T16:33:06.914Z,0.60
2022-08-03T16:35:33.619Z,0.80
2022-08-03T16:38:00.551Z,0.60
2022-08-03T16:40:27.246Z,0.47
2022-08-03T16:42:53.890Z,0.60
2022-08-03T16:45:20.802Z,0.50
2022-08-03T16:47:47.327Z,0.80
2022-08-03T16:50:27.901Z,0.47
2022-08-03T16:52:54.482Z,0.60
2022-08-03T16:55:48.704Z,0.60
2022-08-03T16:58:08.415Z,0.90
2022-08-03T17:00:41.502Z,0.70
2022-08-03T17:03:12.770Z,0.70
2022-08-03T17:05:47.629Z,0.70
2022-08-03T17:08:15.435Z,0.50
2022-08-03T17:10:45.454Z,0.50
2022-08-03T17:13:15.185Z,0.80
2022-08-03T17:16:01.388Z,0.60
2022-08-03T17:18:35.324Z,0.50
2022-08-03T17:21:04.260Z,0.65
2022-08-03T17:23:49.923Z,0.60
2022-08-03T17:26:21.937Z,0.80
2022-08-03T17:28:57.812Z,0.50
2022-08-03T17:31:30.866Z,0.80
2022-08-03T17:34:00.917Z,0.63
2022-08-03T17:36:47.476Z,0.80
2022-08-03T17:39:30.798Z,0.60
2022-08-03T17:42:03.160Z,0.70
2022-08-03T17:44:37.644Z,0.60
2022-08-03T17:47:10.875Z,0.70
2022-08-03T17:49:39.992Z,0.70
2022-08-03T17:52:19.385Z,0.55
2022-08-03T17:55:50.714Z,0.88
2022-08-03T17:58:06.660Z,0.75
2022-08-03T18:00:37.407Z,0.70
2022-08-03T18:03:24.481Z,0.95
2022-08-03T18:06:09.065Z,0.77
2022-08-03T18:08:50.465Z,0.80
2022-08-03T18:11:22.031Z,0.73
2022-08-03T18:14:15.922Z,0.70
2022-08-03T18:17:01.686Z,1.13
2022-08-03T18:20:03.451Z,0.70
2022-08-03T18:22:16.047Z,0.52
2022-08-03T18:24:44.428Z,0.68
2022-08-03T18:27:13.965Z,0.73
2022-08-03T18:32:16.752Z,0.70
2022-08-03T18:34:53.299Z,0.80
2022-08-03T18:37:25.179Z,0.73
2022-08-03T18:39:55.635Z,0.60
2022-08-03T18:42:25.789Z,0.70
2022-08-03T18:44:56.380Z,0.70
2022-08-03T18:47:26.213Z,0.70
2022-08-03T18:50:24.249Z,0.90
2022-08-03T18:52:56.532Z,0.73
2022-08-03T18:55:33.432Z,0.85
2022-08-03T18:58:09.527Z,0.80
2022-08-03T19:01:15.220Z,0.90
2022-08-03T19:04:14.293Z,0.50
2022-08-03T19:06:45.457Z,0.63
2022-08-03T19:09:32.340Z,0.60
2022-08-03T19:12:11.109Z,0.65
2022-08-03T19:14:55.799Z,0.75
2022-08-03T19:17:29.433Z,0.63
2022-08-03T19:19:57.895Z,1.10
2022-08-03T19:22:25.515Z,0.60
2022-08-03T19:24:54.397Z,0.77
2022-08-03T19:27:26.968Z,0.77
2022-08-03T19:29:59.583Z,0.95
2022-08-03T19:32:31.753Z,0.88
2022-08-03T19:35:00.090Z,0.93
2022-08-03T19:37:38.270Z,0.60
2022-08-03T19:40:10.723Z,0.80
2022-08-03T19:42:44.319Z,1.00
2022-08-03T19:45:15.381Z,0.80
2022-08-03T19:47:52.765Z,0.90
2022-08-03T19:50:20.530Z,0.95
2022-08-03T19:52:49.312Z,0.77
2022-08-03T19:55:17.605Z,0.80
2022-08-03T19:57:49.331Z,0.90
2022-08-03T20:00:17.384Z,0.82
2022-08-03T20:02:45.213Z,1.23
2022-08-03T20:05:15.248Z,1.02
2022-08-03T20:07:47.864Z,0.88
2022-08-03T20:10:16.997Z,0.93
2022-08-03T20:12:47.824Z,1.02
2022-08-03T20:15:18.340Z,1.02
2022-08-03T20:17:58.677Z,0.90
2022-08-03T20:20:29.433Z,1.23
2022-08-03T20:22:58.334Z,1.20
2022-08-03T20:25:38.835Z,1.00
2022-08-03T20:28:14.175Z,1.15
2022-08-03T20:30:47.426Z,1.10
2022-08-03T20:36:01.718Z,1.10
2022-08-03T20:38:28.239Z,1.00
2022-08-03T20:40:56.034Z,1.05
2022-08-03T20:43:25.740Z,1.30
2022-08-03T20:45:59.158Z,0.93
2022-08-03T20:48:43.297Z,0.90
2022-08-03T20:51:20.183Z,1.00
2022-08-03T20:54:07.846Z,1.23
2022-08-03T20:56:49.652Z,1.25
2022-08-03T20:59:16.600Z,1.42
2022-08-03T21:01:44.389Z,1.35
2022-08-03T21:04:11.462Z,1.30
2022-08-03T21:06:54.427Z,1.60
2022-08-03T21:12:03.035Z,1.50
2022-08-03T21:13:07.091Z,1.00
2022-08-03T21:14:41.601Z,1.58
2022-08-03T21:17:14.324Z,1.95
2022-08-03T21:19:53.291Z,2.00
2022-08-03T21:22:25.927Z,2.10
2022-08-03T21:24:55.967Z,2.00
2022-08-03T21:27:24.168Z,1.80
2022-08-03T21:29:53.343Z,1.50
2022-08-03T21:32:32.514Z,1.40
2022-08-03T21:35:00.629Z,1.50
2022-08-03T21:37:28.264Z,1.48
2022-08-03T21:39:55.907Z,1.27
2022-08-03T21:42:23.398Z,1.33
2022-08-03T21:44:51.800Z,1.15
2022-08-03T21:47:20.834Z,1.13
2022-08-03T21:50:07.378Z,1.20
2022-08-03T21:52:46.146Z,1.20
2022-08-03T21:55:20.398Z,1.58
2022-08-03T21:57:52.229Z,1.17
2022-08-03T22:02:54.607Z,1.55
2022-08-03T22:05:29.112Z,1.52
2022-08-03T22:08:14.553Z,1.40
2022-08-03T22:10:44.244Z,1.60
2022-08-03T22:13:13.180Z,1.13
2022-08-03T22:15:40.230Z,1.38
2022-08-03T22:18:06.861Z,1.50
2022-08-03T22:20:33.555Z,1.38
2022-08-03T22:23:03.342Z,1.20
2022-08-03T22:25:39.154Z,1.20
2022-08-03T22:28:11.789Z,1.30
2022-08-03T22:30:40.449Z,1.30
2022-08-03T22:33:11.139Z,1.00
2022-08-03T22:35:48.830Z,1.15
2022-08-03T22:38:18.922Z,1.30
2022-08-03T22:40:49.040Z,1.65
2022-08-03T22:43:16.356Z,1.27
2022-08-03T22:46:10.478Z,1.35
2022-08-03T22:48:34.361Z,1.55
2022-08-03T22:51:02.565Z,1.27
2022-08-03T22:53:29.929Z,1.70
2022-08-03T22:55:57.289Z,1.10
2022-08-03T22:58:24.869Z,1.30
2022-08-03T23:00:58.097Z,1.13
2022-08-03T23:03:58.934Z,1.10
2022-08-03T23:06:19.416Z,1.33
2022-08-03T23:08:47.211Z,1.70
2022-08-03T23:11:17.613Z,1.08
2022-08-03T23:13:47.129Z,1.50
2022-08-03T23:16:16.042Z,1.25
2022-08-03T23:18:56.238Z,1.30
2022-08-03T23:22:00.639Z,1.23
2022-08-03T23:24:28.463Z,1.50
2022-08-03T23:26:57.189Z,1.70
2022-08-03T23:29:23.805Z,1.67
2022-08-03T23:31:53.482Z,1.67
2022-08-03T23:34:23.307Z,1.30
2022-08-03T23:36:49.819Z,1.38
2022-08-03T23:39:17.500Z,1.50
2022-08-03T23:41:48.417Z,1.25
2022-08-03T23:44:17.636Z,1.30
2022-08-03T23:46:45.563Z,1.40
2022-08-03T23:49:12.126Z,1.60
2022-08-03T23:51:56.826Z,1.38
2022-08-03T23:54:29.003Z,1.40
2022-08-03T23:57:13.904Z,1.50
